LSZR/ACH METAR and TAF weather

Enter ICAO airport designator
Station Type Date Time Source
LSZR METAR 2021/07/24 19:50 UTC NOAA

LSZR 241950Z AUTO VRB03KT 9999 -RA VCTS FEW080 BKN090 BKN100 SCT///CB 18/18 Q1011


Station Type Date Time Source
LSZR Decoded METAR 2021/07/24 19:50 UTC NOAA

Saint Gallen-Altenrhein, Switzerland (LSZR) 47-29-06N 009-33-43E
Jul 24, 2021 - 03:50 PM EDT / 2021.07.24 1950 UTC
Wind: Variable at 3 MPH (3 KT):0
Visibility: greater than 7 mile(s):0
Sky conditions: mostly cloudy
Weather: light rain; thunder in the vicinity; Cumulonimbus clouds observed
Temperature: 64 F (18 C)
Dew Point: 64 F (18 C)
Relative Humidity: 100%
Pressure (altimeter): 29.85 in. Hg (1011 hPa)
ob: LSZR 241950Z AUTO VRB03KT 9999 -RA VCTS FEW080 BKN090 BKN100 SCT///CB 18/18 Q1011
cycle: 20

Station Type Date Time Source
LSZR TAF 2014/12/22 20:03 UTC NOAA

TAF
AMD LSZR 222054Z 2220/2224 CNL

Example: see airport list